Frasnes-lez-Buissenal, Belgium
Current Conditions -  °F | °C
As of 2:46 AM on Tuesday 25 Nov 2014 (Local Time) from EBCV Reporting Station
Clear Clear  
Wind Chill: 34°   Ceiling: Unl
Heat Index: 34°   Visibility: 4mi
Dew Point: 32°   Wind: 3mph
Humidity: 93%   Direction: 60°ENE
Pressure: 30.27"   Gusts: NA
Location:  50.67°N, 3.62°E
Report Text: EBCV 250146Z AUTO 06003KT 7000 NCD 01/00 Q1025 WHT
Loading
Personal Weather Stations






























Interactive Weather Map New forecast layout! Learn more

10-Day Weather Forecast

Advertisements
Track Severe Weather on mobile